sensor_id;sensor_type;location;lat;lon;timestamp;pressure;altitude;pressure_sealevel;temperature;humidity
7478;BME280;3780;42.424;25.636;2023-03-18T11:14:12;99628.78;;;13.42;nan
7478;BME280;3780;42.424;25.636;2023-03-18T11:16:44;99634.91;;;13.22;nan
7478;BME280;3780;42.424;25.636;2023-03-18T11:19:29;99649.38;;;13.38;nan
7478;BME280;3780;42.424;25.636;2023-03-18T11:22:18;99646.38;;;14.48;nan
7478;BME280;3780;42.424;25.636;2023-03-18T11:24:44;99567.63;;;14.43;nan
7478;BME280;3780;42.424;25.636;2023-03-18T11:29:44;99624.44;;;16.33;nan
7478;BME280;3780;42.424;25.636;2023-03-18T11:32:33;99619.03;;;16.62;nan
7478;BME280;3780;42.424;25.636;2023-03-18T11:35:03;99619.00;;;16.96;nan
7478;BME280;3780;42.424;25.636;2023-03-18T11:37:39;99622.44;;;17.92;nan
7478;BME280;3780;42.424;25.636;2023-03-18T11:40:16;99615.16;;;18.25;nan
7478;BME280;3780;42.424;25.636;2023-03-18T11:42:47;99621.22;;;19.29;nan
7478;BME280;3780;42.424;25.636;2023-03-18T11:47:47;99583.09;;;20.85;nan
7478;BME280;3780;42.424;25.636;2023-03-18T11:50:22;99595.28;;;21.10;nan
7478;BME280;3780;42.424;25.636;2023-03-18T11:52:59;99596.88;;;20.72;nan
7478;BME280;3780;42.424;25.636;2023-03-18T11:55:40;99594.72;;;21.31;nan
7478;BME280;3780;42.424;25.636;2023-03-18T11:58:33;99589.25;;;22.86;nan
7478;BME280;3780;42.424;25.636;2023-03-18T12:01:08;99596.47;;;22.35;nan
7478;BME280;3780;42.424;25.636;2023-03-18T12:20:50;99557.16;;;24.66;nan
7478;BME280;3780;42.424;25.636;2023-03-18T12:45:13;99549.16;;;22.68;nan
7478;BME280;3780;42.424;25.636;2023-03-18T12:50:16;99554.72;;;21.38;nan
7478;BME280;3780;42.424;25.636;2023-03-18T12:52:46;99556.72;;;22.07;nan
7478;BME280;3780;42.424;25.636;2023-03-18T12:55:25;99552.00;;;23.27;nan
7478;BME280;3780;42.424;25.636;2023-03-18T13:00:56;99552.59;;;23.03;nan
7478;BME280;3780;42.424;25.636;2023-03-18T13:06:04;99544.97;;;23.09;nan
7478;BME280;3780;42.424;25.636;2023-03-18T13:13:47;99538.75;;;22.01;nan
7478;BME280;3780;42.424;25.636;2023-03-18T13:16:17;99542.19;;;23.68;nan
7478;BME280;3780;42.424;25.636;2023-03-18T13:18:47;99537.19;;;24.03;nan
7478;BME280;3780;42.424;25.636;2023-03-18T13:21:18;99527.59;;;23.67;nan
7478;BME280;3780;42.424;25.636;2023-03-18T13:31:53;99549.47;;;25.57;nan
7478;BME280;3780;42.424;25.636;2023-03-18T13:43:19;99538.13;;;24.07;nan
7478;BME280;3780;42.424;25.636;2023-03-18T13:45:50;99544.19;;;22.44;nan
7478;BME280;3780;42.424;25.636;2023-03-18T13:48:38;99526.19;;;22.64;nan
7478;BME280;3780;42.424;25.636;2023-03-18T13:53:52;99539.25;;;22.84;nan
7478;BME280;3780;42.424;25.636;2023-03-18T13:56:52;99528.16;;;23.52;nan
7478;BME280;3780;42.424;25.636;2023-03-18T14:01:58;99534.09;;;22.19;nan
7478;BME280;3780;42.424;25.636;2023-03-18T14:04:52;99538.59;;;22.23;nan
7478;BME280;3780;42.424;25.636;2023-03-18T14:07:20;99538.88;;;22.48;nan
7478;BME280;3780;42.424;25.636;2023-03-18T14:15:28;99539.47;;;23.09;nan
7478;BME280;3780;42.424;25.636;2023-03-18T14:17:55;99529.88;;;22.85;nan
7478;BME280;3780;42.424;25.636;2023-03-18T14:20:25;99533.31;;;23.03;nan
7478;BME280;3780;42.424;25.636;2023-03-18T14:22:54;99524.56;;;22.16;nan
7478;BME280;3780;42.424;25.636;2023-03-18T14:28:17;99535.00;;;21.28;nan
7478;BME280;3780;42.424;25.636;2023-03-18T14:30:47;99535.91;;;22.61;nan
7478;BME280;3780;42.424;25.636;2023-03-18T14:38:45;99534.41;;;21.91;nan
7478;BME280;3780;42.424;25.636;2023-03-18T14:41:21;99537.16;;;21.57;nan
7478;BME280;3780;42.424;25.636;2023-03-18T14:46:41;99534.72;;;19.19;nan
7478;BME280;3780;42.424;25.636;2023-03-18T14:49:43;99533.53;;;18.24;nan
7478;BME280;3780;42.424;25.636;2023-03-18T14:54:48;99533.53;;;18.24;nan
7478;BME280;3780;42.424;25.636;2023-03-18T14:57:20;99525.06;;;13.87;nan
7478;BME280;3780;42.424;25.636;2023-03-18T14:59:45;99535.16;;;13.04;nan
7478;BME280;3780;42.424;25.636;2023-03-18T15:02:23;99528.78;;;12.30;nan
7478;BME280;3780;42.424;25.636;2023-03-18T15:04:55;99532.22;;;12.16;nan
7478;BME280;3780;42.424;25.636;2023-03-18T15:07:51;99533.75;;;12.06;nan
7478;BME280;3780;42.424;25.636;2023-03-18T15:10:22;99531.53;;;11.98;nan
7478;BME280;3780;42.424;25.636;2023-03-18T15:13:06;99534.75;;;11.68;nan
7478;BME280;3780;42.424;25.636;2023-03-18T15:15:36;99544.78;;;11.46;nan
7478;BME280;3780;42.424;25.636;2023-03-18T15:18:23;99550.72;;;10.99;nan
7478;BME280;3780;42.424;25.636;2023-03-18T15:20:54;99548.78;;;10.73;nan
7478;BME280;3780;42.424;25.636;2023-03-18T15:23:47;99545.88;;;10.57;nan
7478;BME280;3780;42.424;25.636;2023-03-18T15:26:30;99545.88;;;10.41;nan
